createdAt,value
2016-05-05T00:00:24.164Z,1013.65
2016-05-05T00:01:24.214Z,1013.67
2016-05-05T00:02:24.248Z,1013.65
2016-05-05T00:03:24.281Z,1013.67
2016-05-05T00:04:24.331Z,1013.67
2016-05-05T00:05:24.411Z,1013.65
2016-05-05T00:06:24.399Z,1013.66
2016-05-05T00:07:24.433Z,1013.65
2016-05-05T00:08:24.482Z,1013.66
2016-05-05T00:09:24.517Z,1013.64
2016-05-05T00:10:24.550Z,1013.64
2016-05-05T00:11:24.600Z,1013.61
2016-05-05T00:12:24.665Z,1013.6
2016-05-05T00:13:24.668Z,1013.61
2016-05-05T00:14:24.702Z,1013.61
2016-05-05T00:15:24.751Z,1013.6
2016-05-05T00:16:24.785Z,1013.6
2016-05-05T00:17:24.834Z,1013.56
2016-05-05T00:18:24.869Z,1013.56
2016-05-05T00:19:24.918Z,1013.55
2016-05-05T00:20:24.937Z,1013.53
2016-05-05T00:21:24.971Z,1013.56
2016-05-05T00:22:25.020Z,1013.5
2016-05-05T00:23:25.070Z,1013.53
2016-05-05T00:24:25.198Z,1013.51
2016-05-05T00:25:25.121Z,1013.54
2016-05-05T00:26:25.171Z,1013.55
2016-05-05T00:27:25.206Z,1013.51
2016-05-05T00:28:25.239Z,1013.51
2016-05-05T00:29:25.273Z,1013.52
2016-05-05T00:30:25.353Z,1013.52
2016-05-05T00:31:25.357Z,1013.5
2016-05-05T00:32:25.406Z,1013.49
2016-05-05T00:33:25.439Z,1013.51
2016-05-05T00:34:25.475Z,1013.53
2016-05-05T00:35:25.508Z,1013.55
2016-05-05T00:36:25.558Z,1013.52
2016-05-05T00:37:25.592Z,1013.51
2016-05-05T00:38:25.625Z,1013.53
2016-05-05T00:39:25.769Z,1013.52
2016-05-05T00:40:25.708Z,1013.56
2016-05-05T00:41:25.774Z,1013.55
2016-05-05T00:42:25.777Z,1013.52
2016-05-05T00:43:25.842Z,1013.52
2016-05-05T00:44:25.860Z,1013.53
2016-05-05T00:45:25.894Z,1013.53
2016-05-05T00:46:25.943Z,1013.54
2016-05-05T00:47:25.978Z,1013.56
2016-05-05T00:48:26.027Z,1013.54
2016-05-05T00:49:26.046Z,1013.53
2016-05-05T00:50:26.095Z,1013.52
2016-05-05T00:51:26.130Z,1013.51
2016-05-05T00:52:26.179Z,1013.51
2016-05-05T00:53:26.213Z,1013.5
2016-05-05T00:54:26.246Z,1013.46
2016-05-05T00:55:26.281Z,1013.47
2016-05-05T00:56:26.330Z,1013.48
2016-05-05T00:57:26.365Z,1013.45
2016-05-05T00:58:26.399Z,1013.43
2016-05-05T00:59:26.432Z,1013.43
2016-05-05T01:00:26.481Z,1013.46
2016-05-05T01:01:26.515Z,1013.45
2016-05-05T01:02:26.550Z,1013.45
2016-05-05T01:03:26.598Z,1013.42
2016-05-05T01:04:26.633Z,1013.45
2016-05-05T01:05:26.667Z,1013.44
2016-05-05T01:06:26.717Z,1013.44
2016-05-05T01:07:26.750Z,1013.45
2016-05-05T01:08:26.784Z,1013.44
2016-05-05T01:09:26.818Z,1013.47
2016-05-05T01:10:26.867Z,1013.44
2016-05-05T01:11:26.902Z,1013.45
2016-05-05T01:12:26.935Z,1013.47
2016-05-05T01:13:26.985Z,1013.48
2016-05-05T01:14:27.019Z,1013.46
2016-05-05T01:15:27.053Z,1013.46
2016-05-05T01:16:27.088Z,1013.46
2016-05-05T01:17:27.136Z,1013.47
2016-05-05T01:18:27.171Z,1013.49
2016-05-05T01:19:27.204Z,1013.47
2016-05-05T01:20:27.238Z,1013.44
2016-05-05T01:21:27.288Z,1013.45
2016-05-05T01:22:27.322Z,1013.43
2016-05-05T01:23:27.356Z,1013.43
2016-05-05T01:24:27.405Z,1013.42
2016-05-05T01:25:27.440Z,1013.38
2016-05-05T01:26:27.474Z,1013.42
2016-05-05T01:27:27.507Z,1013.4
2016-05-05T01:28:27.557Z,1013.39
2016-05-05T01:29:27.590Z,1013.35
2016-05-05T01:30:27.625Z,1013.36
2016-05-05T01:31:27.659Z,1013.37
2016-05-05T01:32:27.709Z,1013.38
2016-05-05T01:33:27.742Z,1013.34
2016-05-05T01:34:27.776Z,1013.34
2016-05-05T01:35:27.826Z,1013.38
2016-05-05T01:36:27.876Z,1013.33
2016-05-05T01:37:27.894Z,1013.36
2016-05-05T01:38:27.928Z,1013.4
2016-05-05T01:39:27.977Z,1013.36
2016-05-05T01:40:28.011Z,1013.39
2016-05-05T01:41:28.045Z,1013.36
2016-05-05T01:42:28.095Z,1013.41
2016-05-05T01:43:28.128Z,1013.39
2016-05-05T01:44:28.163Z,1013.36
2016-05-05T01:45:28.197Z,1013.39
2016-05-05T01:46:28.246Z,1013.41
2016-05-05T01:47:28.310Z,1013.39
2016-05-05T01:48:28.313Z,1013.4
2016-05-05T01:49:28.347Z,1013.4
2016-05-05T01:50:28.397Z,1013.46
2016-05-05T01:51:28.432Z,1013.42
2016-05-05T01:52:28.486Z,1013.49
2016-05-05T01:53:28.578Z,1013.42
2016-05-05T01:54:28.655Z,1013.48
2016-05-05T01:55:28.731Z,1013.47
2016-05-05T01:56:28.823Z,1013.46
2016-05-05T01:57:28.886Z,1013.47
2016-05-05T01:58:28.967Z,1013.47
2016-05-05T01:59:28.985Z,1013.46
2016-05-05T02:00:29.050Z,1013.43
2016-05-05T02:01:29.100Z,1013.43
2016-05-05T02:02:29.144Z,1013.42
2016-05-05T02:03:29.184Z,1013.42
2016-05-05T02:04:29.238Z,1013.45
2016-05-05T02:05:29.280Z,1013.45
2016-05-05T02:06:29.319Z,1013.47
2016-05-05T02:07:29.356Z,1013.5
2016-05-05T02:08:29.408Z,1013.49
2016-05-05T02:09:29.491Z,1013.48
2016-05-05T02:10:29.495Z,1013.53
2016-05-05T02:11:29.515Z,1013.53
2016-05-05T02:12:29.567Z,1013.54
2016-05-05T02:13:29.602Z,1013.55
2016-05-05T02:14:29.651Z,1013.53
2016-05-05T02:15:29.687Z,1013.49
2016-05-05T02:16:29.720Z,1013.5
2016-05-05T02:17:29.755Z,1013.53
2016-05-05T02:18:29.805Z,1013.48
2016-05-05T02:19:29.840Z,1013.51
2016-05-05T02:20:29.905Z,1013.47
2016-05-05T02:21:29.908Z,1013.52
2016-05-05T02:22:29.943Z,1013.47
2016-05-05T02:23:29.994Z,1013.51
2016-05-05T02:24:30.027Z,1013.52
2016-05-05T02:25:30.062Z,1013.52
2016-05-05T02:26:30.095Z,1013.52
2016-05-05T02:27:30.160Z,1013.49
2016-05-05T02:28:30.179Z,1013.52
2016-05-05T02:29:30.213Z,1013.48
2016-05-05T02:30:30.263Z,1013.46
2016-05-05T02:31:30.296Z,1013.48
2016-05-05T02:32:30.331Z,1013.48
2016-05-05T02:33:30.380Z,1013.47
2016-05-05T02:34:30.414Z,1013.46
2016-05-05T02:35:30.448Z,1013.45
2016-05-05T02:36:30.481Z,1013.41
2016-05-05T02:37:30.516Z,1013.46
2016-05-05T02:38:30.565Z,1013.44
2016-05-05T02:39:30.600Z,1013.44
2016-05-05T02:40:30.634Z,1013.44
2016-05-05T02:41:30.667Z,1013.46
2016-05-05T02:42:30.717Z,1013.44
2016-05-05T02:43:30.750Z,1013.44
2016-05-05T02:44:30.786Z,1013.43
2016-05-05T02:45:30.834Z,1013.42
2016-05-05T02:46:30.868Z,1013.45
2016-05-05T02:47:30.902Z,1013.45
2016-05-05T02:48:30.952Z,1013.48
2016-05-05T02:49:30.985Z,1013.44
2016-05-05T02:50:31.020Z,1013.46
2016-05-05T02:51:31.054Z,1013.49
2016-05-05T02:52:31.088Z,1013.48
2016-05-05T02:53:31.137Z,1013.49
2016-05-05T02:54:31.233Z,1013.48
2016-05-05T02:55:31.205Z,1013.46
2016-05-05T02:56:31.271Z,1013.5
2016-05-05T02:57:31.288Z,1013.52
2016-05-05T02:58:31.323Z,1013.51
2016-05-05T02:59:31.357Z,1013.51
2016-05-05T03:00:31.422Z,1013.53
2016-05-05T03:01:31.440Z,1013.55
2016-05-05T03:02:31.474Z,1013.54
2016-05-05T03:03:31.539Z,1013.54
2016-05-05T03:04:31.557Z,1013.55
2016-05-05T03:05:31.592Z,1013.53
2016-05-05T03:06:31.625Z,1013.55
2016-05-05T03:07:31.659Z,1013.54
2016-05-05T03:08:31.709Z,1013.52
2016-05-05T03:09:31.743Z,1013.55
2016-05-05T03:10:31.776Z,1013.56
2016-05-05T03:11:31.825Z,1013.58
2016-05-05T03:12:31.860Z,1013.57
2016-05-05T03:13:31.894Z,1013.59
2016-05-05T03:14:31.959Z,1013.59
2016-05-05T03:15:31.961Z,1013.56
2016-05-05T03:16:32.011Z,1013.56
2016-05-05T03:17:32.045Z,1013.58
2016-05-05T03:18:32.080Z,1013.55
2016-05-05T03:19:32.114Z,1013.53
2016-05-05T03:20:32.163Z,1013.51
2016-05-05T03:21:32.196Z,1013.47
2016-05-05T03:22:32.230Z,1013.52
2016-05-05T03:23:32.280Z,1013.52
2016-05-05T03:24:32.299Z,1013.52
2016-05-05T03:25:32.364Z,1013.5
2016-05-05T03:26:32.382Z,1013.51
2016-05-05T03:27:32.416Z,1013.54
2016-05-05T03:28:32.449Z,1013.53
2016-05-05T03:29:32.485Z,1013.56
2016-05-05T03:30:32.534Z,1013.58
2016-05-05T03:31:32.567Z,1013.56
2016-05-05T03:32:32.632Z,1013.53
2016-05-05T03:33:32.635Z,1013.53
2016-05-05T03:34:32.670Z,1013.55
2016-05-05T03:35:32.719Z,1013.55
2016-05-05T03:36:32.753Z,1013.52
2016-05-05T03:37:32.787Z,1013.58
2016-05-05T03:38:32.821Z,1013.56
2016-05-05T03:39:32.870Z,1013.53
2016-05-05T03:40:32.904Z,1013.53
2016-05-05T03:41:32.938Z,1013.58
2016-05-05T03:42:32.972Z,1013.54
2016-05-05T03:43:33.037Z,1013.58
2016-05-05T03:44:33.056Z,1013.56
2016-05-05T03:45:33.089Z,1013.57
2016-05-05T03:46:33.123Z,1013.61
2016-05-05T03:47:33.158Z,1013.62
2016-05-05T03:48:33.192Z,1013.58
2016-05-05T03:49:33.225Z,1013.6
2016-05-05T03:50:33.290Z,1013.62
2016-05-05T03:51:33.308Z,1013.63
2016-05-05T03:52:33.343Z,1013.6
2016-05-05T03:53:33.376Z,1013.63
2016-05-05T03:54:33.426Z,1013.67
2016-05-05T03:55:33.460Z,1013.63
2016-05-05T03:56:33.494Z,1013.63
2016-05-05T03:57:33.575Z,1013.65
2016-05-05T03:58:33.562Z,1013.64
2016-05-05T03:59:33.596Z,1013.66
2016-05-05T04:00:33.645Z,1013.67
2016-05-05T04:01:33.679Z,1013.71
2016-05-05T04:02:33.713Z,1013.72
2016-05-05T04:03:33.747Z,1013.69
2016-05-05T04:04:33.796Z,1013.72
2016-05-05T04:05:33.831Z,1013.73
2016-05-05T04:06:33.865Z,1013.73
2016-05-05T04:07:33.899Z,1013.7
2016-05-05T04:08:33.979Z,1013.72
2016-05-05T04:09:33.967Z,1013.72
2016-05-05T04:10:34.016Z,1013.71
2016-05-05T04:11:34.050Z,1013.73
2016-05-05T04:12:34.084Z,1013.7
2016-05-05T04:13:34.118Z,1013.7
2016-05-05T04:14:34.167Z,1013.75
2016-05-05T04:15:34.186Z,1013.72
2016-05-05T04:16:34.236Z,1013.72
2016-05-05T04:17:34.270Z,1013.7
2016-05-05T04:18:34.303Z,1013.73
2016-05-05T04:19:34.353Z,1013.75
2016-05-05T04:20:34.386Z,1013.78
2016-05-05T04:21:34.421Z,1013.74
2016-05-05T04:22:34.455Z,1013.76
2016-05-05T04:23:34.488Z,1013.78
2016-05-05T04:24:34.522Z,1013.79
2016-05-05T04:25:34.572Z,1013.75
2016-05-05T04:26:34.606Z,1013.75
2016-05-05T04:27:34.641Z,1013.79
2016-05-05T04:28:34.674Z,1013.78
2016-05-05T04:29:34.724Z,1013.81
2016-05-05T04:30:34.757Z,1013.76
2016-05-05T04:31:34.791Z,1013.82
2016-05-05T04:32:34.826Z,1013.82
2016-05-05T04:33:34.859Z,1013.78
2016-05-05T04:34:34.893Z,1013.76
2016-05-05T04:35:34.942Z,1013.79
2016-05-05T04:36:34.977Z,1013.82
2016-05-05T04:37:35.010Z,1013.83
2016-05-05T04:38:35.045Z,1013.81
2016-05-05T04:39:35.079Z,1013.89
2016-05-05T04:40:35.128Z,1013.85
2016-05-05T04:41:35.178Z,1013.8
2016-05-05T04:42:35.196Z,1013.78
2016-05-05T04:43:35.230Z,1013.75
2016-05-05T04:44:35.264Z,1013.73
2016-05-05T04:45:35.314Z,1013.74
2016-05-05T04:46:35.348Z,1013.73
2016-05-05T04:47:35.381Z,1013.76
2016-05-05T04:48:35.446Z,1013.8
2016-05-05T04:49:35.465Z,1013.76
2016-05-05T04:50:35.499Z,1013.72
2016-05-05T04:51:35.533Z,1013.69
2016-05-05T04:52:35.566Z,1013.71
2016-05-05T04:53:35.601Z,1013.63
2016-05-05T04:54:35.650Z,1013.7
2016-05-05T04:55:35.683Z,1013.64
2016-05-05T04:56:35.719Z,1013.66
2016-05-05T04:57:35.752Z,1013.68
2016-05-05T04:58:35.801Z,1013.68
2016-05-05T04:59:35.852Z,1013.66
2016-05-05T05:00:35.869Z,1013.67
2016-05-05T05:01:35.904Z,1013.7
2016-05-05T05:02:35.938Z,1013.66
2016-05-05T05:03:35.971Z,1013.69
2016-05-05T05:04:36.020Z,1013.7
2016-05-05T05:05:36.054Z,1013.68
2016-05-05T05:06:36.089Z,1013.69
2016-05-05T05:07:36.123Z,1013.67
2016-05-05T05:08:36.173Z,1013.69
2016-05-05T05:09:36.206Z,1013.67
2016-05-05T05:10:36.240Z,1013.66
2016-05-05T05:11:36.273Z,1013.65
2016-05-05T05:12:36.324Z,1013.66
2016-05-05T05:13:36.357Z,1013.66
2016-05-05T05:14:36.392Z,1013.71
2016-05-05T05:15:36.426Z,1013.73
2016-05-05T05:16:36.459Z,1013.73
2016-05-05T05:17:36.508Z,1013.75
2016-05-05T05:18:36.542Z,1013.74
2016-05-05T05:19:36.577Z,1013.78
2016-05-05T05:20:36.611Z,1013.75
2016-05-05T05:21:36.661Z,1013.74
2016-05-05T05:22:36.694Z,1013.73
2016-05-05T05:23:36.728Z,1013.67
2016-05-05T05:24:36.762Z,1013.7
2016-05-05T05:25:36.796Z,1013.71
2016-05-05T05:26:36.846Z,1013.65
2016-05-05T05:27:36.879Z,1013.63
2016-05-05T05:28:36.913Z,1013.64
2016-05-05T05:29:36.947Z,1013.62
2016-05-05T05:30:36.982Z,1013.64
2016-05-05T05:31:37.030Z,1013.65
2016-05-05T05:32:37.065Z,1013.62
2016-05-05T05:33:37.099Z,1013.6
2016-05-05T05:34:37.148Z,1013.61
2016-05-05T05:35:37.182Z,1013.61
2016-05-05T05:36:37.248Z,1013.61
2016-05-05T05:37:37.265Z,1013.61
2016-05-05T05:38:37.284Z,1013.65
2016-05-05T05:39:37.349Z,1013.66
2016-05-05T05:40:37.368Z,1013.66
2016-05-05T05:41:37.401Z,1013.68
2016-05-05T05:42:37.435Z,1013.65
2016-05-05T05:43:37.484Z,1013.7
2016-05-05T05:44:37.519Z,1013.7
2016-05-05T05:45:37.553Z,1013.71
2016-05-05T05:46:37.587Z,1013.72
2016-05-05T05:47:37.667Z,1013.73
2016-05-05T05:48:37.670Z,1013.73
2016-05-05T05:49:37.720Z,1013.71
2016-05-05T05:50:37.738Z,1013.77
2016-05-05T05:51:37.803Z,1013.8
2016-05-05T05:52:37.822Z,1013.76
2016-05-05T05:53:37.855Z,1013.8
2016-05-05T05:54:37.905Z,1013.79
2016-05-05T05:55:37.939Z,1013.79
2016-05-05T05:56:37.972Z,1013.82
2016-05-05T05:57:38.022Z,1013.83
2016-05-05T05:58:38.041Z,1013.81
2016-05-05T05:59:38.091Z,1013.82
2016-05-05T06:00:38.124Z,1013.79
2016-05-05T06:01:38.158Z,1013.81
2016-05-05T06:02:38.207Z,1013.81
2016-05-05T06:03:38.241Z,1013.82
2016-05-05T06:04:38.276Z,1013.83
2016-05-05T06:05:38.310Z,1013.87
2016-05-05T06:06:38.360Z,1013.84
2016-05-05T06:07:38.393Z,1013.87
2016-05-05T06:08:38.426Z,1013.87
2016-05-05T06:09:38.461Z,1013.9
2016-05-05T06:10:38.496Z,1013.88
2016-05-05T06:11:38.545Z,1013.89
2016-05-05T06:12:38.578Z,1013.89
2016-05-05T06:13:38.659Z,1013.92
2016-05-05T06:14:38.662Z,1013.91
2016-05-05T06:15:38.695Z,1013.92
2016-05-05T06:16:38.730Z,1013.92
2016-05-05T06:17:38.779Z,1013.91
2016-05-05T06:18:38.813Z,1013.9
2016-05-05T06:19:38.847Z,1013.93
2016-05-05T06:20:38.881Z,1013.93
2016-05-05T06:21:38.931Z,1013.97
2016-05-05T06:22:38.964Z,1013.96
2016-05-05T06:23:38.993Z,1013.98
2016-05-05T06:24:40.168Z,1014.02
2016-05-05T06:25:39.076Z,1014.01
2016-05-05T06:26:39.111Z,1013.99
2016-05-05T06:27:39.160Z,1014.04
2016-05-05T06:28:39.193Z,1014.06
2016-05-05T06:29:39.227Z,1014.06
2016-05-05T06:30:39.277Z,1014.04
2016-05-05T06:31:39.296Z,1014.05
2016-05-05T06:32:39.346Z,1014.04
2016-05-05T06:33:39.379Z,1014.01
2016-05-05T06:34:39.413Z,1014.01
2016-05-05T06:35:39.478Z,1014.03
2016-05-05T06:36:39.496Z,1013.98
2016-05-05T06:37:39.531Z,1014.03
2016-05-05T06:38:39.580Z,1014.06
2016-05-05T06:39:39.629Z,1014.04
2016-05-05T06:40:39.664Z,1014.07
2016-05-05T06:41:39.681Z,1014.05
2016-05-05T06:42:39.732Z,1014.1
2016-05-05T06:43:39.781Z,1014.06
2016-05-05T06:44:39.815Z,1014.05
2016-05-05T06:45:39.849Z,1014.05
2016-05-05T06:46:39.898Z,1014.06
2016-05-05T06:47:39.933Z,1014.03
2016-05-05T06:48:39.966Z,1014.07
2016-05-05T06:49:40.000Z,1014.06
2016-05-05T06:50:40.050Z,1014.06
2016-05-05T06:51:40.099Z,1014.07
2016-05-05T06:52:40.133Z,1014.09
2016-05-05T06:53:40.167Z,1014.08
2016-05-05T06:54:40.202Z,1014.09
2016-05-05T06:55:40.251Z,1014.08
2016-05-05T06:56:40.285Z,1014.05
2016-05-05T06:57:40.335Z,1014.08
2016-05-05T06:58:40.368Z,1014.08
2016-05-05T06:59:40.418Z,1014.06
2016-05-05T07:00:40.451Z,1014.05
2016-05-05T07:01:40.486Z,1014.08
2016-05-05T07:02:40.535Z,1014.09
2016-05-05T07:03:40.569Z,1014.09
2016-05-05T07:04:40.635Z,1014.06
2016-05-05T07:05:40.654Z,1014.01
2016-05-05T07:06:40.687Z,1014.03
2016-05-05T07:07:40.737Z,1014.07
2016-05-05T07:08:40.770Z,1014.06
2016-05-05T07:09:40.820Z,1014.08
2016-05-05T07:10:40.854Z,1014.08
2016-05-05T07:11:40.887Z,1014.09
2016-05-05T07:12:40.937Z,1014.13
2016-05-05T07:13:40.987Z,1014.15
2016-05-05T07:14:41.021Z,1014.15
2016-05-05T07:15:41.086Z,1014.13
2016-05-05T07:16:41.103Z,1014.11
2016-05-05T07:17:41.139Z,1014.09
2016-05-05T07:18:41.188Z,1014.12
2016-05-05T07:19:41.222Z,1014.13
2016-05-05T07:20:41.271Z,1014.15
2016-05-05T07:21:41.305Z,1014.13
2016-05-05T07:22:41.386Z,1014.16
2016-05-05T07:23:41.388Z,1014.13
2016-05-05T07:24:41.422Z,1014.18
2016-05-05T07:25:41.472Z,1014.14
2016-05-05T07:26:41.506Z,1014.16
2016-05-05T07:27:41.555Z,1014.11
2016-05-05T07:28:41.590Z,1014.11
2016-05-05T07:29:41.639Z,1014.11
2016-05-05T07:30:41.674Z,1014.12
2016-05-05T07:31:41.723Z,1014.1
2016-05-05T07:32:41.757Z,1014.08
2016-05-05T07:33:41.807Z,1014.09
2016-05-05T07:34:41.840Z,1014.07
2016-05-05T07:35:41.890Z,1014.08
2016-05-05T07:36:41.924Z,1014.06
2016-05-05T07:37:41.957Z,1014.03
2016-05-05T07:38:42.007Z,1014.1
2016-05-05T07:39:42.494Z,1014.07
2016-05-05T07:40:42.107Z,1014.13
2016-05-05T07:41:42.125Z,1014.09
2016-05-05T07:42:42.173Z,1014.07
2016-05-05T07:43:42.224Z,1014.1
2016-05-05T07:44:42.258Z,1014.08
2016-05-05T07:45:42.307Z,1014.06
2016-05-05T07:46:42.341Z,1014.1
2016-05-05T07:47:42.375Z,1014.08
2016-05-05T07:48:42.425Z,1014.1
2016-05-05T07:49:42.474Z,1014.09
2016-05-05T07:50:42.509Z,1014.1
2016-05-05T07:51:42.558Z,1014.08
2016-05-05T07:52:42.592Z,1014.08
2016-05-05T07:53:42.641Z,1014.07
2016-05-05T07:54:42.675Z,1014.02
2016-05-05T07:55:42.724Z,1014.05
2016-05-05T07:56:42.758Z,1014.04
2016-05-05T07:57:42.808Z,1014.08
2016-05-05T07:58:42.858Z,1014.1
2016-05-05T07:59:42.892Z,1014.1
2016-05-05T08:00:42.941Z,1014.11
2016-05-05T08:01:42.975Z,1014.15
2016-05-05T08:02:43.009Z,1014.13
2016-05-05T08:03:43.059Z,1014.15
2016-05-05T08:04:43.093Z,1014.18
2016-05-05T08:05:43.174Z,1014.17
2016-05-05T08:06:43.177Z,1014.14
2016-05-05T08:07:43.241Z,1014.12
2016-05-05T08:08:43.275Z,1014.14
2016-05-05T08:09:43.310Z,1014.16
2016-05-05T08:10:43.359Z,1014.21
2016-05-05T08:11:43.393Z,1014.14
2016-05-05T08:12:43.473Z,1014.19
2016-05-05T08:13:43.476Z,1014.2
2016-05-05T08:14:43.526Z,1014.23
2016-05-05T08:15:43.560Z,1014.16
2016-05-05T08:16:43.609Z,1014.12
2016-05-05T08:17:43.642Z,1014.1
2016-05-05T08:18:43.693Z,1014.15
2016-05-05T08:19:43.758Z,1014.13
2016-05-05T08:20:43.776Z,1014.13
2016-05-05T08:21:43.826Z,1014.08
2016-05-05T08:22:43.861Z,1014.07
2016-05-05T08:23:43.909Z,1014.08
2016-05-05T08:24:43.944Z,1014.06
2016-05-05T08:25:43.993Z,1014.06
2016-05-05T08:26:44.058Z,1014.03
2016-05-05T08:27:44.077Z,1014.09
2016-05-05T08:28:44.111Z,1014.06
2016-05-05T08:29:44.160Z,1014.07
2016-05-05T08:30:44.194Z,1014.06
2016-05-05T08:31:44.244Z,1014.03
2016-05-05T08:32:44.277Z,1014.05
2016-05-05T08:33:44.358Z,1013.99
2016-05-05T08:34:44.361Z,1013.96
2016-05-05T08:35:44.410Z,1013.98
2016-05-05T08:36:44.444Z,1014
2016-05-05T08:37:44.494Z,1013.97
2016-05-05T08:38:44.543Z,1014
2016-05-05T08:39:44.593Z,1013.97
2016-05-05T08:40:44.626Z,1013.95
2016-05-05T08:41:44.661Z,1013.92
2016-05-05T08:42:44.710Z,1013.99
2016-05-05T08:43:44.745Z,1013.96
2016-05-05T08:44:44.794Z,1013.98
2016-05-05T08:45:44.844Z,1013.96
2016-05-05T08:46:44.878Z,1013.99
2016-05-05T08:47:44.911Z,1013.97
2016-05-05T08:48:44.961Z,1013.95
2016-05-05T08:49:45.011Z,1013.97
2016-05-05T08:50:45.045Z,1013.95
2016-05-05T08:51:45.094Z,1013.95
2016-05-05T08:52:45.128Z,1013.92
2016-05-05T08:53:45.178Z,1013.96
2016-05-05T08:54:45.211Z,1013.96
2016-05-05T08:55:45.261Z,1013.98
2016-05-05T08:56:45.311Z,1013.96
2016-05-05T08:57:45.345Z,1013.97
2016-05-05T08:58:45.410Z,1013.98
2016-05-05T08:59:45.427Z,1013.98
2016-05-05T09:00:45.478Z,1013.95
2016-05-05T09:01:45.512Z,1013.98
2016-05-05T09:02:45.560Z,1013.97
2016-05-05T09:03:45.596Z,1013.96
2016-05-05T09:04:45.644Z,1013.96
2016-05-05T09:05:45.679Z,1013.92
2016-05-05T09:06:45.728Z,1013.95
2016-05-05T09:07:45.762Z,1013.98
2016-05-05T09:08:45.827Z,1013.96
2016-05-05T09:09:45.862Z,1013.96
2016-05-05T09:10:45.895Z,1013.98
2016-05-05T09:11:45.929Z,1013.98
2016-05-05T09:12:45.979Z,1014.01
2016-05-05T09:13:46.013Z,1014.01
2016-05-05T09:14:46.062Z,1013.99
2016-05-05T09:15:46.112Z,1013.95
2016-05-05T09:16:46.162Z,1013.99
2016-05-05T09:17:46.196Z,1014.04
2016-05-05T09:18:46.228Z,1013.99
2016-05-05T09:19:46.279Z,1013.94
2016-05-05T09:20:46.312Z,1013.96
2016-05-05T09:21:46.362Z,1013.99
2016-05-05T09:22:46.412Z,1013.98
2016-05-05T09:23:46.445Z,1014
2016-05-05T09:24:46.495Z,1014.02
2016-05-05T09:25:46.529Z,1014.01
2016-05-05T09:26:46.579Z,1013.98
2016-05-05T09:27:46.613Z,1014
2016-05-05T09:28:46.663Z,1014.02
2016-05-05T09:29:46.699Z,1013.96
2016-05-05T09:30:46.748Z,1013.99
2016-05-05T09:31:46.786Z,1014
2016-05-05T09:32:47.265Z,1013.97
2016-05-05T09:33:46.872Z,1013.99
2016-05-05T09:34:46.936Z,1013.99
2016-05-05T09:35:46.955Z,1013.98
2016-05-05T09:36:46.989Z,1013.99
2016-05-05T09:37:47.038Z,1014
2016-05-05T09:38:47.087Z,1014.02
2016-05-05T09:39:47.138Z,1014.04
2016-05-05T09:40:47.171Z,1014
2016-05-05T09:41:47.205Z,1014
2016-05-05T09:42:47.249Z,1013.96
2016-05-05T09:43:47.299Z,1014.01
2016-05-05T09:44:47.348Z,1013.97
2016-05-05T09:45:47.381Z,1013.96
2016-05-05T09:46:47.448Z,1013.9
2016-05-05T09:47:48.481Z,1013.94
2016-05-05T09:48:47.515Z,1013.88
2016-05-05T09:49:47.581Z,1013.9
2016-05-05T09:50:47.598Z,1013.84
2016-05-05T09:51:47.648Z,1013.82
2016-05-05T09:52:47.698Z,1013.85
2016-05-05T09:53:47.731Z,1013.81
2016-05-05T09:54:47.781Z,1013.8
2016-05-05T09:55:47.831Z,1013.81
2016-05-05T09:56:47.880Z,1013.72
2016-05-05T09:57:47.914Z,1013.71
2016-05-05T09:58:47.964Z,1013.73
2016-05-05T09:59:48.013Z,1013.73
2016-05-05T10:00:48.047Z,1013.76
2016-05-05T10:01:48.097Z,1013.77
2016-05-05T10:02:48.130Z,1013.72
2016-05-05T10:03:48.196Z,1013.74
2016-05-05T10:04:48.214Z,1013.7
2016-05-05T10:05:48.263Z,1013.68
2016-05-05T10:06:48.298Z,1013.69
2016-05-05T10:07:48.348Z,1013.69
2016-05-05T10:08:48.396Z,1013.67
2016-05-05T10:09:48.431Z,1013.68
2016-05-05T10:10:48.481Z,1013.62
2016-05-05T10:11:48.514Z,1013.64
2016-05-05T10:12:48.565Z,1013.62
2016-05-05T10:13:48.614Z,1013.66
2016-05-05T10:14:48.647Z,1013.66
2016-05-05T10:15:48.698Z,1013.64
2016-05-05T10:16:48.747Z,1013.64
2016-05-05T10:17:48.780Z,1013.62
2016-05-05T10:18:48.831Z,1013.63
2016-05-05T10:19:48.880Z,1013.63
2016-05-05T10:20:48.913Z,1013.66
2016-05-05T10:21:48.948Z,1013.63
2016-05-05T10:22:48.997Z,1013.64
2016-05-05T10:23:49.047Z,1013.62
2016-05-05T10:24:49.080Z,1013.64
2016-05-05T10:25:49.161Z,1013.64
2016-05-05T10:26:49.180Z,1013.65
2016-05-05T10:27:49.214Z,1013.61
2016-05-05T10:28:49.263Z,1013.62
2016-05-05T10:29:49.313Z,1013.6
2016-05-05T10:30:49.346Z,1013.61
2016-05-05T10:31:49.396Z,1013.6
2016-05-05T10:32:49.447Z,1014.28
2016-05-05T10:33:49.480Z,1013.62
2016-05-05T10:34:49.530Z,1013.72
2016-05-05T10:35:49.563Z,1014.18
2016-05-05T10:36:49.629Z,1014.18
2016-05-05T10:37:49.663Z,1014.1
2016-05-05T10:38:49.712Z,1014.06
2016-05-05T10:39:49.762Z,1014.11
2016-05-05T10:40:49.811Z,1014.07
2016-05-05T10:41:49.860Z,1014.05
2016-05-05T10:42:49.910Z,1014.02
2016-05-05T10:43:49.976Z,1014
2016-05-05T10:44:50.009Z,1013.94
2016-05-05T10:45:50.059Z,1013.94
2016-05-05T10:46:50.124Z,1013.91
2016-05-05T10:47:50.174Z,1013.9
2016-05-05T10:48:50.223Z,1013.89
2016-05-05T10:49:50.273Z,1013.86
2016-05-05T10:50:50.338Z,1013.8
2016-05-05T10:51:50.387Z,1013.81
2016-05-05T10:52:50.437Z,1013.8
2016-05-05T10:53:50.502Z,1013.81
2016-05-05T10:54:50.927Z,1013.75
2016-05-05T10:55:50.602Z,1013.76
2016-05-05T10:56:51.136Z,1013.69
2016-05-05T10:57:50.732Z,1013.74
2016-05-05T10:58:50.813Z,1013.73
2016-05-05T10:59:50.906Z,1013.68
2016-05-05T11:00:51.015Z,1013.67
2016-05-05T11:01:51.109Z,1013.67
2016-05-05T11:02:51.217Z,1013.63
2016-05-05T11:03:51.290Z,1013.61
2016-05-05T11:04:51.372Z,1013.6
2016-05-05T11:05:51.436Z,1013.55
2016-05-05T11:06:51.518Z,1013.57
2016-05-05T11:07:51.598Z,1013.56
2016-05-05T11:08:51.657Z,1013.58
2016-05-05T11:09:51.712Z,1013.53
2016-05-05T11:10:51.783Z,1013.54
2016-05-05T11:11:51.853Z,1013.52
2016-05-05T11:12:51.908Z,1013.49
2016-05-05T11:13:51.976Z,1013.33
2016-05-05T11:14:52.059Z,1013.51
2016-05-05T11:15:52.094Z,1013.5
2016-05-05T11:16:52.161Z,1013.51
2016-05-05T11:17:52.228Z,1013.49
2016-05-05T11:18:52.280Z,1013.51
2016-05-05T11:19:52.345Z,1013.5
2016-05-05T11:20:52.411Z,1013.49
2016-05-05T11:21:52.477Z,1013.5
2016-05-05T11:22:52.527Z,1013.46
2016-05-05T11:23:52.590Z,1013.54
2016-05-05T11:24:52.702Z,1013.52
2016-05-05T11:25:52.721Z,1013.55
2016-05-05T11:26:52.786Z,1013.55
2016-05-05T11:27:52.836Z,1013.52
2016-05-05T11:28:52.902Z,1013.52
2016-05-05T11:29:52.967Z,1013.51
2016-05-05T11:30:53.032Z,1013.47
2016-05-05T11:31:53.114Z,1013.47
2016-05-05T11:32:53.148Z,1013.47
2016-05-05T11:33:53.213Z,1013.46
2016-05-05T11:34:53.277Z,1013.46
2016-05-05T11:35:53.343Z,1013.48
2016-05-05T11:36:53.392Z,1013.46
2016-05-05T11:37:53.457Z,1013.44
2016-05-05T11:38:53.522Z,1013.44
2016-05-05T11:39:53.589Z,1013.44
2016-05-05T11:40:53.653Z,1013.45
2016-05-05T11:41:53.750Z,1013.51
2016-05-05T11:42:53.783Z,1013.5
2016-05-05T11:43:53.849Z,1013.52
2016-05-05T11:44:53.898Z,1013.5
2016-05-05T11:45:53.980Z,1013.48
2016-05-05T11:46:54.029Z,1013.5
2016-05-05T11:47:54.094Z,1013.45
2016-05-05T11:48:54.159Z,1013.49
2016-05-05T11:49:54.224Z,1013.49
2016-05-05T11:50:54.290Z,1013.47
2016-05-05T11:51:54.370Z,1013.48
2016-05-05T11:52:54.420Z,1013.44
2016-05-05T11:53:54.470Z,1013.52
2016-05-05T11:54:54.566Z,1013.48
2016-05-05T11:55:54.601Z,1013.46
2016-05-05T11:56:54.665Z,1013.43
2016-05-05T11:57:54.731Z,1013.45
2016-05-05T11:58:54.795Z,1013.38
2016-05-05T11:59:54.861Z,1013.37
2016-05-05T12:00:54.925Z,1013.33
2016-05-05T12:01:54.991Z,1013.32
2016-05-05T12:02:55.041Z,1013.31
2016-05-05T12:03:55.106Z,1013.33
2016-05-05T12:04:55.172Z,1013.29
2016-05-05T12:05:55.236Z,1013.33
2016-05-05T12:06:55.302Z,1013.3
2016-05-05T12:07:55.366Z,1013.29
2016-05-05T12:08:55.432Z,1013.27